| |
Missouri Department of Transportation

Social Media Facebook Twitter Flickr Instagram YouTube RSS

Current METAR Information for All MoDOT Locations 
AWOS Home - General Info for all Airports
Current AWOS for all Airports - Current METAR for all Airports
Glossary - Disclaimer - Other Links


Automated Weather Observation System
Date: 06-30-2015
 
Location Current METAR Record
HANNIBAL METAR KHAE 300818Z AUTO 24004KT 10SM CLR 20/18 A2987 RMK AO2
HARRISONVILLE METAR KLRY 300822Z AUTO 00000KT 10SM CLR 20/19 A2995 RMK AO2
LEBANON  No current data available
MALDEN METAR KMAW 300809Z AUTO 29005KT 10SM CLR 23/20 A2989 RMK AO2
MARSHALL  No current data available
MARYVILLE  No current data available
MEXICO  No current data available
MOBERLY  No current data available
NEVADA METAR KNVD 300902Z AUTO 24003KT 10SM CLR 21/18 A2995 RMK AO2
PIEDMONT  No current data available
SIKESTON  No current data available
SULLIVAN METAR KUUV 300823Z AUTO 24005KT 10SM CLR 20/18 A2992 RMK AO2
WARSAW METAR KRAW 300824Z AUTO 00000KT 10SM CLR 20/20 A2993 RMK AO2
About Us
How Do I...
Contact Us
Missouri Department of Transportation
Central Office
105 W. Capitol Avenue
Jefferson City, MO 65102
1-888-ASK-MODOT (275-6636)
1-866-831-6277 (Motor Carrier Services)
Driver's License Offices
horz_bar
| | |
Missouri State Government
© 2013 Missouri Department of Transportation. All Rights Reserved.   Privacy Policy.
 
 
 
 
RSS FeedYoutubeBlogFlickrTwitter Facebook